sensor_id;sensor_type;location;lat;lon;timestamp;P1;durP1;ratioP1;P2;durP2;ratioP2
19285;SDS011;9776;50.798;6.430;2023-03-14T00:00:26;2.42;;;1.83;;
19285;SDS011;9776;50.798;6.430;2023-03-14T00:02:52;1.58;;;1.27;;
19285;SDS011;9776;50.798;6.430;2023-03-14T00:05:19;1.60;;;1.25;;
19285;SDS011;9776;50.798;6.430;2023-03-14T00:07:46;1.85;;;1.30;;
19285;SDS011;9776;50.798;6.430;2023-03-14T00:10:15;1.38;;;1.25;;
19285;SDS011;9776;50.798;6.430;2023-03-14T00:12:45;2.78;;;1.58;;
19285;SDS011;9776;50.798;6.430;2023-03-14T00:15:15;1.63;;;1.52;;
19285;SDS011;9776;50.798;6.430;2023-03-14T00:17:43;1.45;;;1.35;;
19285;SDS011;9776;50.798;6.430;2023-03-14T00:20:11;1.80;;;1.23;;
19285;SDS011;9776;50.798;6.430;2023-03-14T00:22:38;1.83;;;1.48;;
19285;SDS011;9776;50.798;6.430;2023-03-14T00:25:06;1.60;;;1.40;;
19285;SDS011;9776;50.798;6.430;2023-03-14T00:27:35;1.58;;;1.20;;
19285;SDS011;9776;50.798;6.430;2023-03-14T00:30:03;1.38;;;1.25;;
19285;SDS011;9776;50.798;6.430;2023-03-14T00:32:30;1.92;;;1.45;;
19285;SDS011;9776;50.798;6.430;2023-03-14T00:34:57;1.30;;;1.20;;
19285;SDS011;9776;50.798;6.430;2023-03-14T00:37:24;1.50;;;1.40;;
19285;SDS011;9776;50.798;6.430;2023-03-14T00:39:53;2.28;;;1.73;;
19285;SDS011;9776;50.798;6.430;2023-03-14T00:42:19;2.80;;;1.80;;
19285;SDS011;9776;50.798;6.430;2023-03-14T00:44:47;2.40;;;1.63;;
19285;SDS011;9776;50.798;6.430;2023-03-14T00:47:14;3.00;;;1.48;;
19285;SDS011;9776;50.798;6.430;2023-03-14T00:49:41;1.73;;;1.63;;
19285;SDS011;9776;50.798;6.430;2023-03-14T00:52:08;1.33;;;1.23;;
19285;SDS011;9776;50.798;6.430;2023-03-14T00:54:35;1.40;;;1.30;;
19285;SDS011;9776;50.798;6.430;2023-03-14T00:57:01;1.20;;;1.10;;
19285;SDS011;9776;50.798;6.430;2023-03-14T00:59:28;1.85;;;1.50;;
19285;SDS011;9776;50.798;6.430;2023-03-14T01:01:56;1.08;;;1.02;;
19285;SDS011;9776;50.798;6.430;2023-03-14T01:04:23;1.50;;;1.40;;
19285;SDS011;9776;50.798;6.430;2023-03-14T01:06:50;1.50;;;1.40;;
19285;SDS011;9776;50.798;6.430;2023-03-14T01:09:16;1.35;;;1.25;;
19285;SDS011;9776;50.798;6.430;2023-03-14T01:11:43;1.88;;;1.38;;
19285;SDS011;9776;50.798;6.430;2023-03-14T01:14:11;1.40;;;1.20;;
19285;SDS011;9776;50.798;6.430;2023-03-14T01:16:38;1.30;;;1.10;;
19285;SDS011;9776;50.798;6.430;2023-03-14T01:19:06;1.30;;;1.20;;
19285;SDS011;9776;50.798;6.430;2023-03-14T01:21:33;1.17;;;1.17;;
19285;SDS011;9776;50.798;6.430;2023-03-14T01:24:02;1.35;;;1.27;;
19285;SDS011;9776;50.798;6.430;2023-03-14T01:26:31;1.30;;;1.25;;
19285;SDS011;9776;50.798;6.430;2023-03-14T01:28:59;1.40;;;1.30;;
19285;SDS011;9776;50.798;6.430;2023-03-14T01:31:26;1.15;;;1.13;;
19285;SDS011;9776;50.798;6.430;2023-03-14T01:33:53;1.17;;;1.08;;
19285;SDS011;9776;50.798;6.430;2023-03-14T01:36:21;1.85;;;1.30;;
19285;SDS011;9776;50.798;6.430;2023-03-14T01:38:47;1.35;;;1.25;;
19285;SDS011;9776;50.798;6.430;2023-03-14T01:41:15;1.50;;;1.40;;
19285;SDS011;9776;50.798;6.430;2023-03-14T01:43:43;1.50;;;1.40;;
19285;SDS011;9776;50.798;6.430;2023-03-14T01:46:21;1.20;;;1.10;;
19285;SDS011;9776;50.798;6.430;2023-03-14T01:48:53;1.48;;;1.38;;
19285;SDS011;9776;50.798;6.430;2023-03-14T01:51:26;1.30;;;1.20;;
19285;SDS011;9776;50.798;6.430;2023-03-14T01:53:59;1.30;;;1.20;;
19285;SDS011;9776;50.798;6.430;2023-03-14T01:56:30;1.35;;;1.25;;
19285;SDS011;9776;50.798;6.430;2023-03-14T01:58:58;1.80;;;1.40;;
19285;SDS011;9776;50.798;6.430;2023-03-14T02:01:27;1.30;;;1.23;;
19285;SDS011;9776;50.798;6.430;2023-03-14T02:03:55;1.25;;;1.20;;
19285;SDS011;9776;50.798;6.430;2023-03-14T02:06:27;1.50;;;1.40;;
19285;SDS011;9776;50.798;6.430;2023-03-14T02:08:58;2.05;;;1.63;;
19285;SDS011;9776;50.798;6.430;2023-03-14T02:11:26;2.38;;;1.58;;
19285;SDS011;9776;50.798;6.430;2023-03-14T02:13:55;2.08;;;1.88;;
19285;SDS011;9776;50.798;6.430;2023-03-14T02:16:23;1.40;;;1.30;;
19285;SDS011;9776;50.798;6.430;2023-03-14T02:18:50;1.35;;;1.25;;
19285;SDS011;9776;50.798;6.430;2023-03-14T02:21:18;3.72;;;1.80;;
19285;SDS011;9776;50.798;6.430;2023-03-14T02:23:53;1.45;;;1.35;;
19285;SDS011;9776;50.798;6.430;2023-03-14T02:26:29;2.95;;;1.92;;
19285;SDS011;9776;50.798;6.430;2023-03-14T02:29:03;1.85;;;1.45;;
19285;SDS011;9776;50.798;6.430;2023-03-14T02:31:30;1.80;;;1.40;;
19285;SDS011;9776;50.798;6.430;2023-03-14T02:33:57;2.40;;;1.67;;
19285;SDS011;9776;50.798;6.430;2023-03-14T02:36:24;2.30;;;1.77;;
19285;SDS011;9776;50.798;6.430;2023-03-14T02:38:53;1.45;;;1.30;;
19285;SDS011;9776;50.798;6.430;2023-03-14T02:41:28;1.67;;;1.58;;
19285;SDS011;9776;50.798;6.430;2023-03-14T02:43:55;1.85;;;1.70;;
19285;SDS011;9776;50.798;6.430;2023-03-14T02:46:23;2.38;;;1.50;;
19285;SDS011;9776;50.798;6.430;2023-03-14T02:48:51;2.75;;;1.70;;
19285;SDS011;9776;50.798;6.430;2023-03-14T02:51:21;2.13;;;1.65;;
19285;SDS011;9776;50.798;6.430;2023-03-14T02:53:48;2.10;;;1.67;;
19285;SDS011;9776;50.798;6.430;2023-03-14T02:56:15;1.60;;;1.50;;
19285;SDS011;9776;50.798;6.430;2023-03-14T02:58:42;1.98;;;1.75;;
19285;SDS011;9776;50.798;6.430;2023-03-14T03:01:08;2.45;;;1.88;;
19285;SDS011;9776;50.798;6.430;2023-03-14T03:03:36;1.92;;;1.63;;
19285;SDS011;9776;50.798;6.430;2023-03-14T03:06:03;2.78;;;1.70;;
19285;SDS011;9776;50.798;6.430;2023-03-14T03:08:30;1.75;;;1.60;;
19285;SDS011;9776;50.798;6.430;2023-03-14T03:10:57;2.25;;;2.00;;
19285;SDS011;9776;50.798;6.430;2023-03-14T03:13:24;1.98;;;1.77;;
19285;SDS011;9776;50.798;6.430;2023-03-14T03:15:51;2.55;;;1.73;;
19285;SDS011;9776;50.798;6.430;2023-03-14T03:18:18;2.60;;;1.70;;
19285;SDS011;9776;50.798;6.430;2023-03-14T03:20:46;1.60;;;1.50;;
19285;SDS011;9776;50.798;6.430;2023-03-14T03:23:13;2.40;;;1.80;;
19285;SDS011;9776;50.798;6.430;2023-03-14T03:25:40;1.48;;;1.38;;
19285;SDS011;9776;50.798;6.430;2023-03-14T03:28:06;2.10;;;1.58;;
19285;SDS011;9776;50.798;6.430;2023-03-14T03:30:34;1.42;;;1.42;;
19285;SDS011;9776;50.798;6.430;2023-03-14T03:33:04;1.92;;;1.80;;
19285;SDS011;9776;50.798;6.430;2023-03-14T03:35:31;1.42;;;1.33;;
19285;SDS011;9776;50.798;6.430;2023-03-14T03:38:00;1.70;;;1.60;;
19285;SDS011;9776;50.798;6.430;2023-03-14T03:40:26;1.27;;;1.25;;
19285;SDS011;9776;50.798;6.430;2023-03-14T03:42:53;1.95;;;1.80;;
19285;SDS011;9776;50.798;6.430;2023-03-14T03:45:20;1.45;;;1.35;;
19285;SDS011;9776;50.798;6.430;2023-03-14T03:47:46;1.70;;;1.60;;
19285;SDS011;9776;50.798;6.430;2023-03-14T03:50:13;1.30;;;1.30;;
19285;SDS011;9776;50.798;6.430;2023-03-14T03:52:40;1.33;;;1.20;;
19285;SDS011;9776;50.798;6.430;2023-03-14T03:55:08;1.50;;;1.40;;
19285;SDS011;9776;50.798;6.430;2023-03-14T03:57:35;1.50;;;1.40;;
19285;SDS011;9776;50.798;6.430;2023-03-14T04:00:02;1.35;;;1.35;;
19285;SDS011;9776;50.798;6.430;2023-03-14T04:02:30;1.33;;;1.30;;
19285;SDS011;9776;50.798;6.430;2023-03-14T04:04:59;1.52;;;1.52;;
19285;SDS011;9776;50.798;6.430;2023-03-14T04:07:26;1.17;;;1.17;;
19285;SDS011;9776;50.798;6.430;2023-03-14T04:09:52;1.33;;;1.33;;
19285;SDS011;9776;50.798;6.430;2023-03-14T04:12:21;1.58;;;1.48;;
19285;SDS011;9776;50.798;6.430;2023-03-14T04:14:47;1.33;;;1.33;;
19285;SDS011;9776;50.798;6.430;2023-03-14T04:17:14;1.20;;;1.20;;
19285;SDS011;9776;50.798;6.430;2023-03-14T04:19:41;1.65;;;1.55;;
19285;SDS011;9776;50.798;6.430;2023-03-14T04:22:07;1.48;;;1.48;;
19285;SDS011;9776;50.798;6.430;2023-03-14T04:24:34;1.65;;;1.55;;
19285;SDS011;9776;50.798;6.430;2023-03-14T04:27:01;1.30;;;1.30;;
19285;SDS011;9776;50.798;6.430;2023-03-14T04:29:29;1.52;;;1.48;;
19285;SDS011;9776;50.798;6.430;2023-03-14T04:31:55;1.27;;;1.27;;
19285;SDS011;9776;50.798;6.430;2023-03-14T04:34:22;1.40;;;1.40;;
19285;SDS011;9776;50.798;6.430;2023-03-14T04:36:49;1.52;;;1.42;;
19285;SDS011;9776;50.798;6.430;2023-03-14T04:39:16;1.42;;;1.38;;
19285;SDS011;9776;50.798;6.430;2023-03-14T04:41:43;1.80;;;1.70;;
19285;SDS011;9776;50.798;6.430;2023-03-14T04:44:10;1.08;;;1.08;;
19285;SDS011;9776;50.798;6.430;2023-03-14T04:46:38;1.67;;;1.58;;
19285;SDS011;9776;50.798;6.430;2023-03-14T04:49:05;1.20;;;1.20;;
19285;SDS011;9776;50.798;6.430;2023-03-14T04:51:31;1.40;;;1.40;;
19285;SDS011;9776;50.798;6.430;2023-03-14T04:53:58;1.15;;;1.15;;
19285;SDS011;9776;50.798;6.430;2023-03-14T04:56:24;1.40;;;1.30;;
19285;SDS011;9776;50.798;6.430;2023-03-14T04:58:52;1.40;;;1.40;;
19285;SDS011;9776;50.798;6.430;2023-03-14T05:01:19;1.33;;;1.33;;
19285;SDS011;9776;50.798;6.430;2023-03-14T05:03:47;1.42;;;1.33;;
19285;SDS011;9776;50.798;6.430;2023-03-14T05:06:13;1.40;;;1.40;;
19285;SDS011;9776;50.798;6.430;2023-03-14T05:08:40;1.40;;;1.40;;
19285;SDS011;9776;50.798;6.430;2023-03-14T05:11:09;1.40;;;1.40;;
19285;SDS011;9776;50.798;6.430;2023-03-14T05:13:36;1.30;;;1.30;;
19285;SDS011;9776;50.798;6.430;2023-03-14T05:16:04;1.70;;;1.60;;
19285;SDS011;9776;50.798;6.430;2023-03-14T05:18:31;1.42;;;1.42;;
19285;SDS011;9776;50.798;6.430;2023-03-14T05:20:59;1.50;;;1.50;;
19285;SDS011;9776;50.798;6.430;2023-03-14T05:23:26;1.48;;;1.48;;
19285;SDS011;9776;50.798;6.430;2023-03-14T05:25:53;1.60;;;1.60;;
19285;SDS011;9776;50.798;6.430;2023-03-14T05:28:20;1.30;;;1.30;;
19285;SDS011;9776;50.798;6.430;2023-03-14T05:30:46;1.50;;;1.50;;
19285;SDS011;9776;50.798;6.430;2023-03-14T05:33:13;1.10;;;1.10;;
19285;SDS011;9776;50.798;6.430;2023-03-14T05:35:40;1.30;;;1.30;;
19285;SDS011;9776;50.798;6.430;2023-03-14T05:38:09;1.38;;;1.27;;
19285;SDS011;9776;50.798;6.430;2023-03-14T05:40:36;1.23;;;1.23;;
19285;SDS011;9776;50.798;6.430;2023-03-14T05:43:03;1.33;;;1.23;;
19285;SDS011;9776;50.798;6.430;2023-03-14T05:45:29;1.30;;;1.30;;
19285;SDS011;9776;50.798;6.430;2023-03-14T05:47:56;1.48;;;1.48;;
19285;SDS011;9776;50.798;6.430;2023-03-14T05:50:23;1.23;;;1.23;;
19285;SDS011;9776;50.798;6.430;2023-03-14T05:52:49;1.77;;;1.67;;
19285;SDS011;9776;50.798;6.430;2023-03-14T05:55:17;1.25;;;1.25;;
19285;SDS011;9776;50.798;6.430;2023-03-14T05:57:44;1.60;;;1.55;;
19285;SDS011;9776;50.798;6.430;2023-03-14T06:00:11;1.50;;;1.50;;
19285;SDS011;9776;50.798;6.430;2023-03-14T06:02:38;1.38;;;1.38;;
19285;SDS011;9776;50.798;6.430;2023-03-14T06:05:05;1.30;;;1.30;;
19285;SDS011;9776;50.798;6.430;2023-03-14T06:07:33;1.85;;;1.75;;
19285;SDS011;9776;50.798;6.430;2023-03-14T06:10:00;1.33;;;1.33;;
19285;SDS011;9776;50.798;6.430;2023-03-14T06:12:28;1.50;;;1.40;;
19285;SDS011;9776;50.798;6.430;2023-03-14T06:14:54;1.30;;;1.30;;
19285;SDS011;9776;50.798;6.430;2023-03-14T06:17:21;1.33;;;1.33;;
19285;SDS011;9776;50.798;6.430;2023-03-14T06:19:47;1.30;;;1.30;;
19285;SDS011;9776;50.798;6.430;2023-03-14T06:22:14;1.20;;;1.20;;
19285;SDS011;9776;50.798;6.430;2023-03-14T06:24:41;1.23;;;1.23;;
19285;SDS011;9776;50.798;6.430;2023-03-14T06:27:07;1.30;;;1.30;;
19285;SDS011;9776;50.798;6.430;2023-03-14T06:29:35;1.30;;;1.30;;
19285;SDS011;9776;50.798;6.430;2023-03-14T06:32:02;1.30;;;1.30;;
19285;SDS011;9776;50.798;6.430;2023-03-14T06:34:30;1.67;;;1.58;;
19285;SDS011;9776;50.798;6.430;2023-03-14T06:36:57;1.30;;;1.30;;
19285;SDS011;9776;50.798;6.430;2023-03-14T06:39:23;1.35;;;1.33;;
19285;SDS011;9776;50.798;6.430;2023-03-14T06:41:50;1.65;;;1.55;;
19285;SDS011;9776;50.798;6.430;2023-03-14T06:44:16;1.25;;;1.25;;
19285;SDS011;9776;50.798;6.430;2023-03-14T06:46:45;1.45;;;1.45;;
19285;SDS011;9776;50.798;6.430;2023-03-14T06:49:11;1.65;;;1.60;;
19285;SDS011;9776;50.798;6.430;2023-03-14T06:51:38;1.80;;;1.70;;
19285;SDS011;9776;50.798;6.430;2023-03-14T06:54:05;1.20;;;1.20;;
19285;SDS011;9776;50.798;6.430;2023-03-14T06:56:31;1.90;;;1.80;;
19285;SDS011;9776;50.798;6.430;2023-03-14T06:58:58;1.30;;;1.30;;
19285;SDS011;9776;50.798;6.430;2023-03-14T07:01:26;1.13;;;1.13;;
19285;SDS011;9776;50.798;6.430;2023-03-14T07:03:56;1.10;;;1.10;;
19285;SDS011;9776;50.798;6.430;2023-03-14T07:06:23;1.20;;;1.20;;
19285;SDS011;9776;50.798;6.430;2023-03-14T07:08:50;1.30;;;1.30;;
19285;SDS011;9776;50.798;6.430;2023-03-14T07:11:16;1.30;;;1.30;;
19285;SDS011;9776;50.798;6.430;2023-03-14T07:13:43;1.33;;;1.27;;
19285;SDS011;9776;50.798;6.430;2023-03-14T07:16:10;1.20;;;1.20;;
19285;SDS011;9776;50.798;6.430;2023-03-14T07:18:36;1.27;;;1.27;;
19285;SDS011;9776;50.798;6.430;2023-03-14T07:21:05;1.20;;;1.20;;
19285;SDS011;9776;50.798;6.430;2023-03-14T07:23:32;1.50;;;1.50;;
19285;SDS011;9776;50.798;6.430;2023-03-14T07:25:58;1.20;;;1.20;;
19285;SDS011;9776;50.798;6.430;2023-03-14T07:28:25;1.17;;;1.17;;
19285;SDS011;9776;50.798;6.430;2023-03-14T07:30:52;1.35;;;1.35;;
19285;SDS011;9776;50.798;6.430;2023-03-14T07:33:19;1.20;;;1.20;;
19285;SDS011;9776;50.798;6.430;2023-03-14T07:35:46;1.20;;;1.20;;
19285;SDS011;9776;50.798;6.430;2023-03-14T07:38:14;1.20;;;1.20;;
19285;SDS011;9776;50.798;6.430;2023-03-14T07:40:41;1.30;;;1.30;;
19285;SDS011;9776;50.798;6.430;2023-03-14T07:43:08;1.02;;;1.02;;
19285;SDS011;9776;50.798;6.430;2023-03-14T07:45:34;1.20;;;1.20;;
19285;SDS011;9776;50.798;6.430;2023-03-14T07:48:01;1.00;;;1.00;;
19285;SDS011;9776;50.798;6.430;2023-03-14T07:50:28;1.20;;;1.20;;
19285;SDS011;9776;50.798;6.430;2023-03-14T07:52:54;1.35;;;1.35;;
19285;SDS011;9776;50.798;6.430;2023-03-14T07:55:22;1.40;;;1.30;;
19285;SDS011;9776;50.798;6.430;2023-03-14T07:57:49;1.25;;;1.25;;
19285;SDS011;9776;50.798;6.430;2023-03-14T08:00:16;1.00;;;1.00;;
19285;SDS011;9776;50.798;6.430;2023-03-14T08:02:43;1.23;;;1.13;;
19285;SDS011;9776;50.798;6.430;2023-03-14T08:05:10;1.00;;;1.00;;
19285;SDS011;9776;50.798;6.430;2023-03-14T08:07:36;1.35;;;1.35;;
19285;SDS011;9776;50.798;6.430;2023-03-14T08:10:03;1.70;;;1.40;;
19285;SDS011;9776;50.798;6.430;2023-03-14T08:12:32;1.30;;;1.30;;
19285;SDS011;9776;50.798;6.430;2023-03-14T08:14:59;1.20;;;1.20;;
19285;SDS011;9776;50.798;6.430;2023-03-14T08:17:25;1.90;;;1.80;;
19285;SDS011;9776;50.798;6.430;2023-03-14T08:19:52;1.67;;;1.58;;
19285;SDS011;9776;50.798;6.430;2023-03-14T08:22:19;1.35;;;1.35;;
19285;SDS011;9776;50.798;6.430;2023-03-14T08:24:46;1.25;;;1.25;;
19285;SDS011;9776;50.798;6.430;2023-03-14T08:27:12;1.25;;;1.25;;
19285;SDS011;9776;50.798;6.430;2023-03-14T08:29:41;1.38;;;1.38;;
19285;SDS011;9776;50.798;6.430;2023-03-14T08:32:08;2.00;;;1.90;;
19285;SDS011;9776;50.798;6.430;2023-03-14T08:34:35;1.38;;;1.38;;
19285;SDS011;9776;50.798;6.430;2023-03-14T08:37:02;1.45;;;1.35;;
19285;SDS011;9776;50.798;6.430;2023-03-14T08:39:29;1.20;;;1.20;;
19285;SDS011;9776;50.798;6.430;2023-03-14T08:41:55;1.15;;;1.15;;
19285;SDS011;9776;50.798;6.430;2023-03-14T08:44:22;1.33;;;1.33;;
19285;SDS011;9776;50.798;6.430;2023-03-14T08:46:50;1.25;;;1.25;;
19285;SDS011;9776;50.798;6.430;2023-03-14T08:49:17;1.23;;;1.23;;
19285;SDS011;9776;50.798;6.430;2023-03-14T08:51:44;1.48;;;1.38;;
19285;SDS011;9776;50.798;6.430;2023-03-14T08:54:10;1.05;;;1.05;;
19285;SDS011;9776;50.798;6.430;2023-03-14T08:56:37;1.20;;;1.20;;
19285;SDS011;9776;50.798;6.430;2023-03-14T08:59:04;1.52;;;1.52;;
19285;SDS011;9776;50.798;6.430;2023-03-14T09:01:31;1.65;;;1.55;;
19285;SDS011;9776;50.798;6.430;2023-03-14T09:03:59;1.73;;;1.63;;
19285;SDS011;9776;50.798;6.430;2023-03-14T09:06:26;1.60;;;1.60;;
19285;SDS011;9776;50.798;6.430;2023-03-14T09:08:52;1.60;;;1.50;;
19285;SDS011;9776;50.798;6.430;2023-03-14T09:11:19;1.58;;;1.50;;
19285;SDS011;9776;50.798;6.430;2023-03-14T09:13:46;1.25;;;1.25;;
19285;SDS011;9776;50.798;6.430;2023-03-14T09:16:13;1.58;;;1.40;;
19285;SDS011;9776;50.798;6.430;2023-03-14T09:18:40;1.60;;;1.50;;
19285;SDS011;9776;50.798;6.430;2023-03-14T09:21:08;1.02;;;1.02;;
19285;SDS011;9776;50.798;6.430;2023-03-14T09:23:35;1.13;;;1.13;;
19285;SDS011;9776;50.798;6.430;2023-03-14T09:26:01;1.15;;;1.15;;
19285;SDS011;9776;50.798;6.430;2023-03-14T09:28:28;1.27;;;1.27;;
19285;SDS011;9776;50.798;6.430;2023-03-14T09:30:55;1.30;;;1.30;;
19285;SDS011;9776;50.798;6.430;2023-03-14T09:33:23;1.20;;;1.20;;
19285;SDS011;9776;50.798;6.430;2023-03-14T09:35:49;1.05;;;1.05;;
19285;SDS011;9776;50.798;6.430;2023-03-14T09:38:17;1.60;;;1.50;;
19285;SDS011;9776;50.798;6.430;2023-03-14T09:40:45;1.38;;;1.13;;
19285;SDS011;9776;50.798;6.430;2023-03-14T09:43:13;1.10;;;1.10;;
19285;SDS011;9776;50.798;6.430;2023-03-14T09:45:41;1.38;;;1.35;;
19285;SDS011;9776;50.798;6.430;2023-03-14T09:48:12;1.20;;;1.10;;
19285;SDS011;9776;50.798;6.430;2023-03-14T09:50:43;1.67;;;1.63;;
19285;SDS011;9776;50.798;6.430;2023-03-14T09:53:13;1.73;;;1.65;;
19285;SDS011;9776;50.798;6.430;2023-03-14T09:55:44;1.58;;;1.50;;
19285;SDS011;9776;50.798;6.430;2023-03-14T09:58:14;1.50;;;1.50;;
19285;SDS011;9776;50.798;6.430;2023-03-14T10:00:44;1.48;;;1.40;;
19285;SDS011;9776;50.798;6.430;2023-03-14T10:03:21;1.23;;;1.23;;
19285;SDS011;9776;50.798;6.430;2023-03-14T10:05:51;1.45;;;1.40;;
19285;SDS011;9776;50.798;6.430;2023-03-14T10:08:18;1.30;;;1.30;;
19285;SDS011;9776;50.798;6.430;2023-03-14T10:10:46;1.80;;;1.70;;
19285;SDS011;9776;50.798;6.430;2023-03-14T10:13:14;1.60;;;1.50;;
19285;SDS011;9776;50.798;6.430;2023-03-14T10:15:46;1.65;;;1.55;;
19285;SDS011;9776;50.798;6.430;2023-03-14T10:18:14;1.48;;;1.48;;
19285;SDS011;9776;50.798;6.430;2023-03-14T10:20:41;1.40;;;1.40;;
19285;SDS011;9776;50.798;6.430;2023-03-14T10:23:19;1.38;;;1.38;;
19285;SDS011;9776;50.798;6.430;2023-03-14T10:26:00;1.88;;;1.77;;
19285;SDS011;9776;50.798;6.430;2023-03-14T10:28:32;1.42;;;1.42;;
19285;SDS011;9776;50.798;6.430;2023-03-14T10:31:03;1.60;;;1.50;;
19285;SDS011;9776;50.798;6.430;2023-03-14T10:33:30;1.85;;;1.75;;
19285;SDS011;9776;50.798;6.430;2023-03-14T10:35:59;1.80;;;1.70;;
19285;SDS011;9776;50.798;6.430;2023-03-14T10:38:28;1.60;;;1.50;;
19285;SDS011;9776;50.798;6.430;2023-03-14T10:40:58;1.45;;;1.35;;
19285;SDS011;9776;50.798;6.430;2023-03-14T10:43:26;1.63;;;1.50;;
19285;SDS011;9776;50.798;6.430;2023-03-14T10:45:57;1.23;;;1.13;;
19285;SDS011;9776;50.798;6.430;2023-03-14T10:48:30;1.17;;;1.17;;
19285;SDS011;9776;50.798;6.430;2023-03-14T10:51:02;1.50;;;1.40;;
19285;SDS011;9776;50.798;6.430;2023-03-14T10:53:33;1.00;;;1.00;;
19285;SDS011;9776;50.798;6.430;2023-03-14T10:56:07;1.38;;;1.27;;
19285;SDS011;9776;50.798;6.430;2023-03-14T10:58:38;1.38;;;1.27;;
19285;SDS011;9776;50.798;6.430;2023-03-14T11:01:22;1.77;;;1.67;;
19285;SDS011;9776;50.798;6.430;2023-03-14T11:04:01;1.63;;;1.52;;
19285;SDS011;9776;50.798;6.430;2023-03-14T11:06:34;1.83;;;1.73;;
19285;SDS011;9776;50.798;6.430;2023-03-14T11:09:07;1.60;;;1.50;;
19285;SDS011;9776;50.798;6.430;2023-03-14T11:11:44;1.40;;;1.38;;
19285;SDS011;9776;50.798;6.430;2023-03-14T11:14:16;1.58;;;1.48;;
19285;SDS011;9776;50.798;6.430;2023-03-14T11:16:52;1.20;;;1.20;;
19285;SDS011;9776;50.798;6.430;2023-03-14T11:19:27;1.13;;;1.13;;
19285;SDS011;9776;50.798;6.430;2023-03-14T11:22:05;1.85;;;1.75;;
19285;SDS011;9776;50.798;6.430;2023-03-14T11:24:42;1.25;;;1.20;;
19285;SDS011;9776;50.798;6.430;2023-03-14T11:27:18;1.63;;;1.52;;
19285;SDS011;9776;50.798;6.430;2023-03-14T11:29:54;1.25;;;1.20;;
19285;SDS011;9776;50.798;6.430;2023-03-14T11:32:27;1.30;;;1.30;;
19285;SDS011;9776;50.798;6.430;2023-03-14T11:35:03;1.52;;;1.42;;
19285;SDS011;9776;50.798;6.430;2023-03-14T11:37:36;1.30;;;1.30;;
19285;SDS011;9776;50.798;6.430;2023-03-14T11:40:13;1.50;;;1.40;;
19285;SDS011;9776;50.798;6.430;2023-03-14T11:42:46;1.50;;;1.40;;
19285;SDS011;9776;50.798;6.430;2023-03-14T11:45:17;1.60;;;1.50;;
19285;SDS011;9776;50.798;6.430;2023-03-14T11:47:49;1.58;;;1.48;;
19285;SDS011;9776;50.798;6.430;2023-03-14T11:50:22;1.58;;;1.48;;
19285;SDS011;9776;50.798;6.430;2023-03-14T11:52:52;1.65;;;1.55;;
19285;SDS011;9776;50.798;6.430;2023-03-14T11:55:24;1.55;;;1.45;;
19285;SDS011;9776;50.798;6.430;2023-03-14T11:58:00;1.50;;;1.50;;
19285;SDS011;9776;50.798;6.430;2023-03-14T12:00:29;1.10;;;1.10;;
19285;SDS011;9776;50.798;6.430;2023-03-14T12:02:57;1.40;;;1.35;;
19285;SDS011;9776;50.798;6.430;2023-03-14T12:05:51;1.27;;;1.20;;
19285;SDS011;9776;50.798;6.430;2023-03-14T12:11:14;1.63;;;1.52;;
19285;SDS011;9776;50.798;6.430;2023-03-14T12:13:47;1.50;;;1.40;;
19285;SDS011;9776;50.798;6.430;2023-03-14T12:19:21;1.70;;;1.60;;
19285;SDS011;9776;50.798;6.430;2023-03-14T12:21:54;1.60;;;1.50;;
19285;SDS011;9776;50.798;6.430;2023-03-14T12:24:24;1.35;;;1.35;;
19285;SDS011;9776;50.798;6.430;2023-03-14T12:26:55;1.90;;;1.80;;
19285;SDS011;9776;50.798;6.430;2023-03-14T12:29:25;1.70;;;1.60;;
19285;SDS011;9776;50.798;6.430;2023-03-14T12:34:50;1.90;;;1.80;;
19285;SDS011;9776;50.798;6.430;2023-03-14T12:37:18;1.98;;;1.85;;
19285;SDS011;9776;50.798;6.430;2023-03-14T12:40:01;2.15;;;2.00;;
19285;SDS011;9776;50.798;6.430;2023-03-14T12:42:42;1.92;;;1.80;;
19285;SDS011;9776;50.798;6.430;2023-03-14T12:45:25;1.92;;;1.83;;
19285;SDS011;9776;50.798;6.430;2023-03-14T12:47:55;1.65;;;1.55;;
19285;SDS011;9776;50.798;6.430;2023-03-14T12:50:35;2.13;;;2.00;;
19285;SDS011;9776;50.798;6.430;2023-03-14T12:56:24;1.60;;;1.50;;
19285;SDS011;9776;50.798;6.430;2023-03-14T12:58:56;1.85;;;1.75;;
19285;SDS011;9776;50.798;6.430;2023-03-14T13:01:46;1.70;;;1.60;;
19285;SDS011;9776;50.798;6.430;2023-03-14T13:04:14;1.70;;;1.60;;
19285;SDS011;9776;50.798;6.430;2023-03-14T13:06:44;2.13;;;1.92;;
19285;SDS011;9776;50.798;6.430;2023-03-14T13:12:25;2.30;;;2.20;;
19285;SDS011;9776;50.798;6.430;2023-03-14T13:14:56;2.13;;;1.70;;
19285;SDS011;9776;50.798;6.430;2023-03-14T13:17:26;2.05;;;1.75;;
19285;SDS011;9776;50.798;6.430;2023-03-14T13:19:55;1.92;;;1.83;;
19285;SDS011;9776;50.798;6.430;2023-03-14T13:22:27;1.90;;;1.80;;
19285;SDS011;9776;50.798;6.430;2023-03-14T13:24:58;2.05;;;1.80;;
19285;SDS011;9776;50.798;6.430;2023-03-14T13:27:26;1.95;;;1.85;;
19285;SDS011;9776;50.798;6.430;2023-03-14T13:29:57;1.77;;;1.67;;
19285;SDS011;9776;50.798;6.430;2023-03-14T13:32:27;1.95;;;1.85;;
19285;SDS011;9776;50.798;6.430;2023-03-14T13:34:55;2.88;;;2.58;;
19285;SDS011;9776;50.798;6.430;2023-03-14T13:37:23;2.75;;;2.55;;
19285;SDS011;9776;50.798;6.430;2023-03-14T13:39:52;3.20;;;2.90;;
19285;SDS011;9776;50.798;6.430;2023-03-14T13:42:21;3.25;;;2.95;;
19285;SDS011;9776;50.798;6.430;2023-03-14T13:44:51;2.08;;;1.70;;
19285;SDS011;9776;50.798;6.430;2023-03-14T13:47:21;2.00;;;1.80;;
19285;SDS011;9776;50.798;6.430;2023-03-14T13:49:51;3.20;;;1.38;;
19285;SDS011;9776;50.798;6.430;2023-03-14T13:52:22;1.85;;;1.70;;
19285;SDS011;9776;50.798;6.430;2023-03-14T13:54:52;3.05;;;1.90;;
19285;SDS011;9776;50.798;6.430;2023-03-14T13:57:20;2.90;;;1.83;;
19285;SDS011;9776;50.798;6.430;2023-03-14T13:59:57;2.90;;;2.00;;
19285;SDS011;9776;50.798;6.430;2023-03-14T14:02:26;3.10;;;1.92;;
19285;SDS011;9776;50.798;6.430;2023-03-14T14:04:55;2.20;;;2.00;;
19285;SDS011;9776;50.798;6.430;2023-03-14T14:07:22;2.45;;;2.25;;
19285;SDS011;9776;50.798;6.430;2023-03-14T14:09:51;3.67;;;2.78;;
19285;SDS011;9776;50.798;6.430;2023-03-14T14:12:20;2.92;;;2.00;;
19285;SDS011;9776;50.798;6.430;2023-03-14T14:14:54;2.65;;;2.22;;
19285;SDS011;9776;50.798;6.430;2023-03-14T14:17:24;4.55;;;1.95;;
19285;SDS011;9776;50.798;6.430;2023-03-14T14:19:55;4.43;;;2.10;;
19285;SDS011;9776;50.798;6.430;2023-03-14T14:22:22;3.22;;;2.10;;
19285;SDS011;9776;50.798;6.430;2023-03-14T14:24:50;2.10;;;1.90;;
19285;SDS011;9776;50.798;6.430;2023-03-14T14:27:19;3.25;;;2.03;;
19285;SDS011;9776;50.798;6.430;2023-03-14T14:29:58;1.88;;;1.65;;
19285;SDS011;9776;50.798;6.430;2023-03-14T14:32:27;4.22;;;2.00;;
19285;SDS011;9776;50.798;6.430;2023-03-14T14:35:02;1.75;;;1.65;;
19285;SDS011;9776;50.798;6.430;2023-03-14T14:37:30;2.35;;;1.90;;
19285;SDS011;9776;50.798;6.430;2023-03-14T14:39:59;2.22;;;1.75;;
19285;SDS011;9776;50.798;6.430;2023-03-14T14:42:32;2.83;;;2.47;;
19285;SDS011;9776;50.798;6.430;2023-03-14T14:44:59;2.88;;;2.33;;
19285;SDS011;9776;50.798;6.430;2023-03-14T14:47:28;7.43;;;6.78;;
19285;SDS011;9776;50.798;6.430;2023-03-14T14:49:58;3.83;;;3.17;;
19285;SDS011;9776;50.798;6.430;2023-03-14T14:52:33;4.45;;;3.33;;
19285;SDS011;9776;50.798;6.430;2023-03-14T14:55:12;6.00;;;4.47;;
19285;SDS011;9776;50.798;6.430;2023-03-14T14:57:50;5.47;;;4.07;;
19285;SDS011;9776;50.798;6.430;2023-03-14T15:00:18;3.97;;;3.20;;
19285;SDS011;9776;50.798;6.430;2023-03-14T15:02:47;4.32;;;3.50;;
19285;SDS011;9776;50.798;6.430;2023-03-14T15:05:17;3.40;;;2.50;;
19285;SDS011;9776;50.798;6.430;2023-03-14T15:07:47;4.20;;;3.80;;
19285;SDS011;9776;50.798;6.430;2023-03-14T15:10:14;5.93;;;4.05;;
19285;SDS011;9776;50.798;6.430;2023-03-14T15:12:43;3.22;;;2.53;;
19285;SDS011;9776;50.798;6.430;2023-03-14T15:15:10;3.83;;;3.03;;
19285;SDS011;9776;50.798;6.430;2023-03-14T15:17:37;3.75;;;3.03;;
19285;SDS011;9776;50.798;6.430;2023-03-14T15:20:05;2.58;;;2.05;;
19285;SDS011;9776;50.798;6.430;2023-03-14T15:22:38;2.63;;;2.33;;
19285;SDS011;9776;50.798;6.430;2023-03-14T15:25:07;4.07;;;2.63;;